createdAt,value
2023-03-25T00:01:34.986Z,0.83
2023-03-25T00:04:04.183Z,0.80
2023-03-25T00:06:33.954Z,0.70
2023-03-25T00:09:02.105Z,0.73
2023-03-25T00:11:29.756Z,0.70
2023-03-25T00:13:59.530Z,1.10
2023-03-25T00:16:27.136Z,0.73
2023-03-25T00:18:54.706Z,0.70
2023-03-25T00:21:23.143Z,0.90
2023-03-25T00:23:50.887Z,0.70
2023-03-25T00:26:18.264Z,0.60
2023-03-25T00:28:45.744Z,0.70
2023-03-25T00:31:14.058Z,0.67
2023-03-25T00:33:44.320Z,0.63
2023-03-25T00:36:14.055Z,1.17
2023-03-25T00:38:43.001Z,1.00
2023-03-25T00:41:16.495Z,0.70
2023-03-25T00:43:44.608Z,1.00
2023-03-25T00:46:12.252Z,0.90
2023-03-25T00:48:39.864Z,0.70
2023-03-25T00:51:09.061Z,1.20
2023-03-25T00:53:37.303Z,0.70
2023-03-25T00:56:05.207Z,1.00
2023-03-25T00:58:32.607Z,1.00
2023-03-25T01:01:00.656Z,1.47
2023-03-25T01:03:31.278Z,0.87
2023-03-25T01:05:58.807Z,1.00
2023-03-25T01:08:27.893Z,0.80
2023-03-25T01:10:55.269Z,1.00
2023-03-25T01:13:23.540Z,1.10
2023-03-25T01:15:51.245Z,0.90
2023-03-25T01:18:18.913Z,1.07
2023-03-25T01:20:46.348Z,0.90
2023-03-25T01:23:13.712Z,1.10
2023-03-25T01:25:41.074Z,1.00
2023-03-25T01:28:08.455Z,1.00
2023-03-25T01:30:35.840Z,1.20
2023-03-25T01:33:03.337Z,0.90
2023-03-25T01:35:31.009Z,0.93
2023-03-25T01:37:58.421Z,1.10
2023-03-25T01:40:26.051Z,1.10
2023-03-25T01:42:53.500Z,1.10
2023-03-25T01:45:22.711Z,1.20
2023-03-25T01:47:51.699Z,1.10
2023-03-25T01:50:19.630Z,1.50
2023-03-25T01:52:49.462Z,1.27
2023-03-25T01:55:17.893Z,1.10
2023-03-25T01:57:46.009Z,1.00
2023-03-25T02:00:15.492Z,1.27
2023-03-25T02:02:45.478Z,1.10
2023-03-25T02:05:14.430Z,1.20
2023-03-25T02:07:44.424Z,1.27
2023-03-25T02:10:12.216Z,0.93
2023-03-25T02:12:40.810Z,1.17
2023-03-25T02:15:10.262Z,1.03
2023-03-25T02:17:55.734Z,1.50
2023-03-25T02:20:41.955Z,1.57
2023-03-25T02:23:28.076Z,1.70
2023-03-25T02:26:00.105Z,2.40
2023-03-25T02:28:47.138Z,1.67
2023-03-25T02:31:25.546Z,1.77
2023-03-25T02:34:11.168Z,1.60
2023-03-25T02:36:40.132Z,1.57
2023-03-25T02:39:09.035Z,1.50
2023-03-25T02:41:37.992Z,1.37
2023-03-25T02:44:10.111Z,1.63
2023-03-25T02:46:39.037Z,1.57
2023-03-25T02:49:07.950Z,1.23
2023-03-25T02:51:36.876Z,1.57
2023-03-25T02:54:05.798Z,1.30
2023-03-25T02:56:33.437Z,1.40
2023-03-25T02:59:01.770Z,1.43
2023-03-25T03:01:29.225Z,1.30
2023-03-25T03:03:57.102Z,1.50
2023-03-25T03:06:25.534Z,1.73
2023-03-25T03:08:54.501Z,1.53
2023-03-25T03:11:35.652Z,1.67
2023-03-25T03:14:13.765Z,1.40
2023-03-25T03:16:49.734Z,1.10
2023-03-25T03:19:24.744Z,1.20
2023-03-25T03:22:01.389Z,1.30
2023-03-25T03:24:33.069Z,1.60
2023-03-25T03:27:01.993Z,1.70
2023-03-25T03:29:33.854Z,1.40
2023-03-25T03:32:06.222Z,1.60
2023-03-25T03:34:34.986Z,1.50
2023-03-25T03:37:03.268Z,1.40
2023-03-25T03:39:34.396Z,1.87
2023-03-25T03:42:18.869Z,1.43
2023-03-25T03:44:47.978Z,1.47
2023-03-25T03:47:17.075Z,1.60
2023-03-25T03:49:54.779Z,1.70
2023-03-25T03:52:36.990Z,1.77
2023-03-25T03:55:06.387Z,1.40
2023-03-25T03:57:35.584Z,1.27
2023-03-25T04:00:06.359Z,1.43
2023-03-25T04:02:35.314Z,1.40
2023-03-25T04:05:03.044Z,1.33
2023-03-25T04:07:43.845Z,1.80
2023-03-25T04:10:18.692Z,1.63
2023-03-25T04:12:50.230Z,1.40
2023-03-25T04:15:18.182Z,1.23
2023-03-25T04:17:47.438Z,1.50
2023-03-25T04:20:16.270Z,1.30
2023-03-25T04:22:45.206Z,1.10
2023-03-25T04:25:13.752Z,1.23
2023-03-25T04:27:41.550Z,1.20
2023-03-25T04:30:09.537Z,1.17
2023-03-25T04:32:36.993Z,1.23
2023-03-25T04:35:04.657Z,1.43
2023-03-25T04:37:33.624Z,1.10
2023-03-25T04:40:01.183Z,1.37
2023-03-25T04:42:30.266Z,1.10
2023-03-25T04:44:57.649Z,1.20
2023-03-25T04:47:25.852Z,1.10
2023-03-25T04:49:53.565Z,0.97
2023-03-25T04:52:21.043Z,1.10
2023-03-25T04:54:48.437Z,0.93
2023-03-25T04:57:15.802Z,1.07
2023-03-25T04:59:43.218Z,1.43
2023-03-25T05:02:13.044Z,1.10
2023-03-25T05:04:45.342Z,1.33
2023-03-25T05:07:12.856Z,1.27
2023-03-25T05:09:40.273Z,1.30
2023-03-25T05:12:09.290Z,1.90
2023-03-25T05:14:36.679Z,1.37
2023-03-25T05:17:04.078Z,1.30
2023-03-25T05:19:33.150Z,1.70
2023-03-25T05:22:02.016Z,1.33
2023-03-25T05:24:29.378Z,1.30
2023-03-25T05:26:56.768Z,1.50
2023-03-25T05:29:24.228Z,1.40
2023-03-25T05:31:51.821Z,1.47
2023-03-25T05:34:20.432Z,1.30
2023-03-25T05:36:47.848Z,1.43
2023-03-25T05:39:15.509Z,1.20
2023-03-25T05:41:44.615Z,1.20
2023-03-25T05:44:13.640Z,1.40
2023-03-25T05:46:41.289Z,0.93
2023-03-25T05:49:08.692Z,1.43
2023-03-25T05:51:38.055Z,1.10
2023-03-25T05:54:07.677Z,1.00
2023-03-25T05:56:36.627Z,1.30
2023-03-25T05:59:04.748Z,1.20
2023-03-25T06:01:33.878Z,1.27
2023-03-25T06:04:03.255Z,1.20
2023-03-25T06:06:31.833Z,1.27
2023-03-25T06:08:59.566Z,1.20
2023-03-25T06:11:26.945Z,1.33
2023-03-25T06:13:54.403Z,1.70
2023-03-25T06:16:26.150Z,1.20
2023-03-25T06:18:55.100Z,1.23
2023-03-25T06:21:23.238Z,1.00
2023-03-25T06:23:50.840Z,1.27
2023-03-25T06:26:18.775Z,1.10
2023-03-25T06:28:46.276Z,1.00
2023-03-25T06:31:16.406Z,1.40
2023-03-25T06:33:44.266Z,2.00
2023-03-25T06:36:12.890Z,1.30
2023-03-25T06:38:40.280Z,1.40
2023-03-25T06:41:08.018Z,1.13
2023-03-25T06:43:35.536Z,1.20
2023-03-25T06:46:02.912Z,1.57
2023-03-25T06:48:30.486Z,1.03
2023-03-25T06:50:57.874Z,1.47
2023-03-25T06:53:25.552Z,1.50
2023-03-25T06:55:53.194Z,1.40
2023-03-25T06:58:20.931Z,1.60
2023-03-25T07:00:48.226Z,1.37
2023-03-25T07:03:15.699Z,1.40
2023-03-25T07:05:43.452Z,1.40
2023-03-25T07:08:10.883Z,1.13
2023-03-25T07:10:38.270Z,1.40
2023-03-25T07:13:05.805Z,1.53
2023-03-25T07:15:33.194Z,1.43
2023-03-25T07:18:00.637Z,1.70
2023-03-25T07:20:28.020Z,1.70
2023-03-25T07:22:55.679Z,1.63
2023-03-25T07:25:23.224Z,1.60
2023-03-25T07:27:50.616Z,2.20
2023-03-25T07:30:18.251Z,1.67
2023-03-25T07:32:46.025Z,2.10
2023-03-25T07:35:13.490Z,2.00
2023-03-25T07:37:40.872Z,2.43
2023-03-25T07:40:08.659Z,2.40
2023-03-25T07:42:37.308Z,1.93
2023-03-25T07:45:05.543Z,2.77
2023-03-25T07:47:32.950Z,1.90
2023-03-25T07:50:00.563Z,2.17
2023-03-25T07:52:28.011Z,2.30
2023-03-25T07:54:55.847Z,2.23
2023-03-25T07:57:23.304Z,1.70
2023-03-25T07:59:50.668Z,1.90
2023-03-25T08:02:18.106Z,1.77
2023-03-25T08:04:46.397Z,2.47
2023-03-25T08:07:13.714Z,2.13
2023-03-25T08:09:42.317Z,1.60
2023-03-25T08:12:09.695Z,1.90
2023-03-25T08:14:37.056Z,2.17
2023-03-25T08:17:06.104Z,2.77
2023-03-25T08:19:33.948Z,1.90
2023-03-25T08:22:01.685Z,2.53
2023-03-25T08:24:29.979Z,2.17
2023-03-25T08:26:57.418Z,2.00
2023-03-25T08:29:24.956Z,2.03
2023-03-25T08:31:52.908Z,2.50
2023-03-25T08:34:21.249Z,2.13
2023-03-25T08:36:49.277Z,2.50
2023-03-25T08:39:16.917Z,2.23
2023-03-25T08:41:45.095Z,2.20
2023-03-25T08:44:12.414Z,2.43
2023-03-25T08:46:39.749Z,1.60
2023-03-25T08:49:07.096Z,2.50
2023-03-25T08:51:34.461Z,2.47
2023-03-25T08:54:01.864Z,2.80
2023-03-25T08:56:29.733Z,2.20
2023-03-25T08:58:57.894Z,2.40
2023-03-25T09:01:25.238Z,2.97
2023-03-25T09:03:52.879Z,2.47
2023-03-25T09:06:20.281Z,2.97
2023-03-25T09:08:50.219Z,2.10
2023-03-25T09:11:21.838Z,2.17
2023-03-25T09:13:46.410Z,1.37
2023-03-25T09:16:13.782Z,1.40
2023-03-25T09:18:41.187Z,1.03
2023-03-25T09:21:08.558Z,1.00
2023-03-25T09:23:35.974Z,0.80
2023-03-25T09:26:04.960Z,0.80
2023-03-25T09:28:32.330Z,0.90
2023-03-25T09:30:59.792Z,0.90
2023-03-25T09:33:27.788Z,0.60
2023-03-25T09:35:55.555Z,0.80
2023-03-25T09:38:22.910Z,0.60
2023-03-25T09:40:50.462Z,0.60
2023-03-25T09:43:37.819Z,0.67
2023-03-25T09:46:06.315Z,0.80
2023-03-25T09:48:41.177Z,0.80
2023-03-25T09:51:10.085Z,0.70
2023-03-25T09:53:45.136Z,0.80
2023-03-25T09:56:14.046Z,1.10
2023-03-25T09:58:49.252Z,0.93
2023-03-25T10:01:28.415Z,1.10
2023-03-25T10:03:54.666Z,0.90
2023-03-25T10:06:24.271Z,1.10
2023-03-25T10:08:53.169Z,1.00
2023-03-25T10:11:22.001Z,1.83
2023-03-25T10:13:51.073Z,1.00
2023-03-25T10:16:39.110Z,1.80
2023-03-25T10:19:24.532Z,1.53
2023-03-25T10:21:53.689Z,1.00
2023-03-25T10:24:22.527Z,1.40
2023-03-25T10:27:00.499Z,1.30
2023-03-25T10:29:41.616Z,1.20
2023-03-25T10:32:10.806Z,1.23
2023-03-25T10:34:39.864Z,1.50
2023-03-25T10:37:10.100Z,1.40
2023-03-25T10:39:39.115Z,1.40
2023-03-25T10:42:14.277Z,1.20
2023-03-25T10:44:41.676Z,1.43
2023-03-25T10:47:10.517Z,1.43
2023-03-25T10:49:38.426Z,1.60
2023-03-25T10:52:06.066Z,1.10
2023-03-25T10:54:34.990Z,1.50
2023-03-25T10:57:10.154Z,1.50
2023-03-25T10:59:40.727Z,1.40
2023-03-25T11:02:15.443Z,1.60
2023-03-25T11:04:44.243Z,1.43
2023-03-25T11:07:16.239Z,1.47
2023-03-25T11:09:43.546Z,1.63
2023-03-25T11:12:11.006Z,2.20
2023-03-25T11:14:39.765Z,1.20
2023-03-25T11:17:16.886Z,1.20
2023-03-25T11:19:54.566Z,1.60
2023-03-25T11:22:26.144Z,2.13
2023-03-25T11:24:56.881Z,1.43
2023-03-25T11:27:25.809Z,1.73
2023-03-25T11:29:54.491Z,1.77
2023-03-25T11:32:26.353Z,1.73
2023-03-25T11:34:54.090Z,1.20
2023-03-25T11:37:22.567Z,1.40
2023-03-25T11:39:51.496Z,1.57
2023-03-25T11:42:29.659Z,1.97
2023-03-25T11:44:58.928Z,1.90
2023-03-25T11:47:27.406Z,1.37
2023-03-25T11:49:54.746Z,1.70
2023-03-25T11:52:23.642Z,1.53
2023-03-25T11:54:52.558Z,1.60
2023-03-25T11:57:31.567Z,1.80
2023-03-25T12:00:11.343Z,1.40
2023-03-25T12:02:40.323Z,2.00
2023-03-25T12:05:12.230Z,1.43
2023-03-25T12:07:47.195Z,1.60
2023-03-25T12:10:18.844Z,1.50
2023-03-25T12:13:06.578Z,1.10
2023-03-25T12:15:50.869Z,1.07
2023-03-25T12:18:28.945Z,1.53
2023-03-25T12:21:00.456Z,1.40
2023-03-25T12:23:32.158Z,1.60
2023-03-25T12:26:16.009Z,1.13
2023-03-25T12:28:53.663Z,1.40
2023-03-25T12:31:22.629Z,1.63
2023-03-25T12:33:51.749Z,1.27
2023-03-25T12:36:27.044Z,1.00
2023-03-25T12:38:55.877Z,1.50
2023-03-25T12:41:31.418Z,1.17
2023-03-25T12:44:00.534Z,0.90
2023-03-25T12:46:47.900Z,1.10
2023-03-25T12:49:22.695Z,1.10
2023-03-25T12:51:51.605Z,1.10
2023-03-25T12:54:29.231Z,1.90
2023-03-25T12:57:00.835Z,1.10
2023-03-25T12:59:48.109Z,1.80
2023-03-25T13:02:17.123Z,0.90
2023-03-25T13:04:47.647Z,1.10
2023-03-25T13:07:16.662Z,1.20
2023-03-25T13:09:49.069Z,1.23
2023-03-25T13:12:33.200Z,1.10
2023-03-25T13:15:26.718Z,1.10
2023-03-25T13:18:00.364Z,1.20
2023-03-25T13:20:29.387Z,1.40
2023-03-25T13:22:59.483Z,1.30
2023-03-25T13:25:28.528Z,1.30
2023-03-25T13:27:57.678Z,1.27
2023-03-25T13:30:26.762Z,1.10
2023-03-25T13:32:55.747Z,1.47
2023-03-25T13:35:41.333Z,1.37
2023-03-25T13:38:22.199Z,1.50
2023-03-25T13:40:51.336Z,1.20
2023-03-25T13:43:35.319Z,1.40
2023-03-25T13:46:04.271Z,1.50
2023-03-25T13:48:39.142Z,1.30
2023-03-25T13:51:07.630Z,1.60
2023-03-25T13:53:43.933Z,1.20
2023-03-25T13:56:29.754Z,1.30
2023-03-25T13:59:13.682Z,1.30
2023-03-25T14:01:42.618Z,1.43
2023-03-25T14:04:12.166Z,1.30
2023-03-25T14:06:49.824Z,1.53
2023-03-25T14:09:18.760Z,1.40
2023-03-25T14:11:54.153Z,1.40
2023-03-25T14:14:23.086Z,1.20
2023-03-25T14:16:56.110Z,1.50
2023-03-25T14:19:27.942Z,1.77
2023-03-25T14:21:55.313Z,1.33
2023-03-25T14:24:27.187Z,1.30
2023-03-25T14:26:57.679Z,1.40
2023-03-25T14:29:32.352Z,1.27
2023-03-25T14:32:01.430Z,1.60
2023-03-25T14:34:28.971Z,1.60
2023-03-25T14:36:59.449Z,1.80
2023-03-25T14:39:34.304Z,1.63
2023-03-25T14:42:10.709Z,1.20
2023-03-25T14:44:41.700Z,1.70
2023-03-25T14:47:18.283Z,1.63
2023-03-25T14:49:57.624Z,1.23
2023-03-25T14:52:41.866Z,1.63
2023-03-25T14:55:19.492Z,1.30
2023-03-25T14:57:47.742Z,1.20
2023-03-25T15:00:23.679Z,1.37
2023-03-25T15:02:52.350Z,1.57
2023-03-25T15:05:21.631Z,1.20
2023-03-25T15:07:54.100Z,1.80
2023-03-25T15:10:29.318Z,1.47
2023-03-25T15:13:07.502Z,1.60
2023-03-25T15:15:36.416Z,1.87
2023-03-25T15:18:03.847Z,1.57
2023-03-25T15:20:33.370Z,1.93
2023-03-25T15:23:20.261Z,1.50
2023-03-25T15:25:49.090Z,1.30
2023-03-25T15:28:17.928Z,1.43
2023-03-25T15:30:58.864Z,1.47
2023-03-25T15:33:29.279Z,1.60
2023-03-25T15:35:58.201Z,1.20
2023-03-25T15:38:37.161Z,1.10
2023-03-25T15:41:22.520Z,1.40
2023-03-25T15:44:01.232Z,1.60
2023-03-25T15:46:31.019Z,1.80
2023-03-25T15:49:00.099Z,1.47
2023-03-25T15:51:41.002Z,1.67
2023-03-25T15:54:24.778Z,1.57
2023-03-25T15:56:53.719Z,1.40
2023-03-25T15:59:26.101Z,1.40
2023-03-25T16:01:53.823Z,1.80
2023-03-25T16:04:39.099Z,1.43
2023-03-25T16:07:08.819Z,1.47
2023-03-25T16:09:37.760Z,0.93
2023-03-25T16:12:06.643Z,1.00
2023-03-25T16:14:34.180Z,1.20
2023-03-25T16:17:02.933Z,1.60
2023-03-25T16:19:38.924Z,1.30
2023-03-25T16:22:13.701Z,1.10
2023-03-25T16:24:41.271Z,1.50
2023-03-25T16:27:12.578Z,1.20
2023-03-25T16:29:41.188Z,1.70
2023-03-25T16:32:10.017Z,1.47
2023-03-25T16:34:38.847Z,1.30
2023-03-25T16:37:06.704Z,1.30
2023-03-25T16:39:35.787Z,0.97
2023-03-25T16:42:07.676Z,1.13
2023-03-25T16:44:35.422Z,1.40
2023-03-25T16:47:03.012Z,1.40
2023-03-25T16:49:37.528Z,1.30
2023-03-25T16:52:06.567Z,1.60
2023-03-25T16:54:48.613Z,1.33
2023-03-25T16:57:18.062Z,1.63
2023-03-25T16:59:47.348Z,1.33
2023-03-25T17:02:25.228Z,1.33
2023-03-25T17:04:55.247Z,1.10
2023-03-25T17:07:27.522Z,1.20
2023-03-25T17:09:56.341Z,1.40
2023-03-25T17:12:24.569Z,1.40
2023-03-25T17:14:53.038Z,1.13
2023-03-25T17:17:21.988Z,1.60
2023-03-25T17:19:50.945Z,1.57
2023-03-25T17:22:28.940Z,1.10
2023-03-25T17:24:57.748Z,1.37
2023-03-25T17:27:29.368Z,1.20
2023-03-25T17:30:01.173Z,1.23
2023-03-25T17:32:28.642Z,1.10
2023-03-25T17:34:57.795Z,1.20
2023-03-25T17:37:26.449Z,1.57
2023-03-25T17:39:53.966Z,1.50
2023-03-25T17:42:25.856Z,1.30
2023-03-25T17:44:53.915Z,1.20
2023-03-25T17:47:21.918Z,1.10
2023-03-25T17:49:51.110Z,1.30
2023-03-25T17:52:20.022Z,1.00
2023-03-25T17:54:47.385Z,1.20
2023-03-25T17:57:16.235Z,1.00
2023-03-25T17:59:43.916Z,0.90
2023-03-25T18:02:12.819Z,0.80
2023-03-25T18:04:40.267Z,1.60
2023-03-25T18:07:07.770Z,1.20
2023-03-25T18:09:35.256Z,0.90
2023-03-25T18:12:02.628Z,1.00
2023-03-25T18:14:30.278Z,0.93
2023-03-25T18:16:57.632Z,1.00
2023-03-25T18:19:26.774Z,1.07
2023-03-25T18:21:54.798Z,1.00
2023-03-25T18:24:22.648Z,1.00
2023-03-25T18:26:51.590Z,1.00
2023-03-25T18:29:20.241Z,1.43
2023-03-25T18:31:47.899Z,1.10
2023-03-25T18:34:15.788Z,1.40
2023-03-25T18:36:44.502Z,1.00
2023-03-25T18:39:13.474Z,0.80
2023-03-25T18:41:41.627Z,0.90
2023-03-25T18:44:09.249Z,1.53
2023-03-25T18:46:37.325Z,1.17
2023-03-25T18:49:06.756Z,1.10
2023-03-25T18:51:34.128Z,1.20
2023-03-25T18:54:01.437Z,1.03
2023-03-25T18:56:28.805Z,0.90
2023-03-25T18:58:56.202Z,1.00
2023-03-25T19:01:24.960Z,1.30
2023-03-25T19:03:52.292Z,1.00
2023-03-25T19:06:19.838Z,1.20
2023-03-25T19:08:47.934Z,1.13
2023-03-25T19:11:20.986Z,1.17
2023-03-25T19:13:45.149Z,1.23
2023-03-25T19:16:12.521Z,1.47
2023-03-25T19:18:39.977Z,1.33
2023-03-25T19:21:07.433Z,1.13
2023-03-25T19:23:36.277Z,1.03
2023-03-25T19:26:03.695Z,1.20
2023-03-25T19:28:31.127Z,0.83
2023-03-25T19:31:00.507Z,1.10
2023-03-25T19:33:30.042Z,1.20
2023-03-25T19:35:59.332Z,1.70
2023-03-25T19:38:26.757Z,0.93
2023-03-25T19:41:04.535Z,0.70
2023-03-25T19:43:31.898Z,1.40
2023-03-25T19:45:59.777Z,1.00
2023-03-25T19:48:29.334Z,1.70
2023-03-25T19:50:56.738Z,1.17
2023-03-25T19:53:24.488Z,1.20
2023-03-25T19:55:51.984Z,1.33
2023-03-25T19:58:20.643Z,1.83
2023-03-25T20:00:48.077Z,1.37
2023-03-25T20:03:15.519Z,1.23
2023-03-25T20:05:43.086Z,1.20
2023-03-25T20:08:11.546Z,1.20
2023-03-25T20:10:41.077Z,1.20
2023-03-25T20:13:09.868Z,1.13
2023-03-25T20:15:37.276Z,1.07
2023-03-25T20:18:06.433Z,1.10
2023-03-25T20:20:33.874Z,0.90
2023-03-25T20:23:01.237Z,1.17
2023-03-25T20:25:28.579Z,1.20
2023-03-25T20:27:55.982Z,1.47
2023-03-25T20:30:23.334Z,1.00
2023-03-25T20:32:51.016Z,1.10
2023-03-25T20:35:19.425Z,1.13
2023-03-25T20:37:48.528Z,1.13
2023-03-25T20:40:17.274Z,1.10
2023-03-25T20:42:45.582Z,1.10
2023-03-25T20:45:13.910Z,1.10
2023-03-25T20:47:41.865Z,1.20
2023-03-25T20:50:10.143Z,1.20
2023-03-25T20:52:37.758Z,1.30
2023-03-25T20:55:05.543Z,1.67
2023-03-25T20:57:32.961Z,1.80
2023-03-25T21:00:00.354Z,1.43
2023-03-25T21:02:27.995Z,1.30
2023-03-25T21:04:57.246Z,1.57
2023-03-25T21:07:27.556Z,1.60
2023-03-25T21:09:54.996Z,2.40
2023-03-25T21:12:29.725Z,1.70
2023-03-25T21:14:51.502Z,1.30
2023-03-25T21:17:18.879Z,1.20
2023-03-25T21:19:46.331Z,1.30
2023-03-25T21:22:14.092Z,1.90
2023-03-25T21:24:41.492Z,1.60
2023-03-25T21:27:08.893Z,1.50
2023-03-25T21:29:36.936Z,1.53
2023-03-25T21:32:04.441Z,1.57
2023-03-25T21:34:31.899Z,2.00
2023-03-25T21:37:00.826Z,1.30
2023-03-25T21:39:28.192Z,1.10
2023-03-25T21:41:55.574Z,1.20
2023-03-25T21:44:22.977Z,1.40
2023-03-25T21:46:53.711Z,1.43
2023-03-25T21:49:22.385Z,1.30
2023-03-25T21:51:51.388Z,1.50
2023-03-25T21:54:18.848Z,1.70
2023-03-25T21:56:47.915Z,1.87
2023-03-25T21:59:15.351Z,1.57
2023-03-25T22:01:42.766Z,1.10
2023-03-25T22:04:10.506Z,1.30
2023-03-25T22:06:37.860Z,1.50
2023-03-25T22:09:06.720Z,1.77
2023-03-25T22:11:37.303Z,1.90
2023-03-25T22:14:05.434Z,1.53
2023-03-25T22:16:33.379Z,1.40
2023-03-25T22:19:01.000Z,1.57
2023-03-25T22:21:30.067Z,2.43
2023-03-25T22:23:59.062Z,1.37
2023-03-25T22:26:26.905Z,1.50
2023-03-25T22:28:56.287Z,1.43
2023-03-25T22:31:29.498Z,1.60
2023-03-25T22:34:06.092Z,1.43
2023-03-25T22:36:34.803Z,1.90
2023-03-25T22:39:02.640Z,1.87
2023-03-25T22:41:30.007Z,1.80
2023-03-25T22:43:57.495Z,1.93
2023-03-25T22:46:25.247Z,1.50
2023-03-25T22:48:52.852Z,2.00
2023-03-25T22:51:21.115Z,2.20
2023-03-25T22:53:48.870Z,1.77
2023-03-25T22:56:16.305Z,2.80
2023-03-25T22:58:43.675Z,2.23
2023-03-25T23:01:18.641Z,1.83
2023-03-25T23:03:46.235Z,2.00
2023-03-25T23:06:14.096Z,3.03
2023-03-25T23:08:41.661Z,2.37
2023-03-25T23:11:11.234Z,2.07
2023-03-25T23:13:39.109Z,2.03
2023-03-25T23:16:08.017Z,1.87
2023-03-25T23:18:36.614Z,2.20
2023-03-25T23:21:04.288Z,2.07
2023-03-25T23:23:31.859Z,2.30
2023-03-25T23:26:09.251Z,2.40
2023-03-25T23:28:37.822Z,2.40
2023-03-25T23:31:13.037Z,2.13
2023-03-25T23:33:41.550Z,2.80
2023-03-25T23:36:09.679Z,2.10
2023-03-25T23:38:38.066Z,2.57
2023-03-25T23:41:06.848Z,3.17
2023-03-25T23:43:34.602Z,2.50
2023-03-25T23:46:02.742Z,2.53
2023-03-25T23:48:31.411Z,1.77
2023-03-25T23:50:59.332Z,2.57
2023-03-25T23:53:27.463Z,2.53
2023-03-25T23:55:55.883Z,2.60
2023-03-25T23:58:25.407Z,2.27
